Time,TemperatureF,DewpointF,PressureIn,WindDirection,WindDirectionDegrees,WindSpeedMPH,WindSpeedGustMPH,Humidity,HourlyPrecipIn,Conditions,Clouds,dailyrainin,SoftwareType,DateUTC
2013-09-26 08:22:00,-999.0,-99.9,-100.00,ENE,62,5.0,7.0,-999,0.00,,,-99.99,,2013-09-26 12:22:00,
2013-09-26 08:32:00,-999.0,-99.9,-100.00,ENE,62,5.0,7.0,-999,0.00,,,-99.99,,2013-09-26 12:32:00,
2013-09-26 08:43:00,-999.0,-99.9,-100.00,ENE,62,5.0,7.0,-999,0.00,,,-99.99,,2013-09-26 12:43:00,
2013-09-26 08:52:00,-999.0,-99.9,-100.00,ENE,62,5.0,7.0,-999,0.00,,,-99.99,,2013-09-26 12:52:00,
2013-09-26 09:22:00,-999.0,-99.9,-100.00,ENE,76,4.0,8.0,-999,0.00,,,-99.99,,2013-09-26 13:22:00,
2013-09-26 09:32:00,-999.0,-99.9,-100.00,ENE,76,4.0,8.0,-999,0.00,,,-99.99,,2013-09-26 13:32:00,
2013-09-26 09:42:00,-999.0,-99.9,-100.00,ENE,76,4.0,8.0,-999,0.00,,,-99.99,,2013-09-26 13:42:00,
2013-09-26 09:52:00,-999.0,-99.9,-100.00,ENE,76,4.0,8.0,-999,0.00,,,-99.99,,2013-09-26 13:52:00,
2013-09-26 10:22:00,-999.0,-99.9,-100.00,ENE,63,3.0,10.0,-999,0.00,,,-99.99,,2013-09-26 14:22:00,
2013-09-26 10:33:00,-999.0,-99.9,-100.00,ENE,63,3.0,10.0,-999,0.00,,,-99.99,,2013-09-26 14:33:00,
2013-09-26 10:42:00,-999.0,-99.9,-100.00,ENE,63,3.0,10.0,-999,0.00,,,-99.99,,2013-09-26 14:42:00,
2013-09-26 10:52:00,-999.0,-99.9,-100.00,ENE,63,3.0,10.0,-999,0.00,,,-99.99,,2013-09-26 14:52:00,
2013-09-26 10:53:00,-999.0,-99.9,-100.00,ENE,77,3.0,9.0,-999,0.00,,,-99.99,,2013-09-26 14:53:00,
2013-09-26 11:22:00,-999.0,-99.9,-100.00,ENE,77,3.0,9.0,-999,0.00,,,-99.99,,2013-09-26 15:22:00,
2013-09-26 11:33:00,-999.0,-99.9,-100.00,ENE,77,3.0,9.0,-999,0.00,,,-99.99,,2013-09-26 15:33:00,
2013-09-26 11:44:00,-999.0,-99.9,-100.00,ENE,77,3.0,9.0,-999,0.00,,,-99.99,,2013-09-26 15:44:00,
2013-09-26 11:53:00,-999.0,-99.9,-100.00,East,80,4.0,8.0,-999,0.00,,,-99.99,,2013-09-26 15:53:00,
2013-09-26 12:24:00,-999.0,-99.9,-100.00,East,80,4.0,8.0,-999,0.00,,,-99.99,,2013-09-26 16:24:00,
2013-09-26 12:33:00,-999.0,-99.9,-100.00,East,80,4.0,8.0,-999,0.00,,,-99.99,,2013-09-26 16:33:00,
2013-09-26 12:44:00,-999.0,-99.9,-100.00,East,80,4.0,8.0,-999,0.00,,,-99.99,,2013-09-26 16:44:00,
2013-09-26 12:53:00,-999.0,-99.9,-100.00,ENE,62,4.0,9.0,-999,0.00,,,-99.99,,2013-09-26 16:53:00,
2013-09-26 13:34:00,-999.0,-99.9,-100.00,ENE,62,4.0,9.0,-999,0.00,,,-99.99,,2013-09-26 17:34:00,
2013-09-26 13:43:00,-999.0,-99.9,-100.00,ENE,62,4.0,9.0,-999,0.00,,,-99.99,,2013-09-26 17:43:00,
2013-09-26 14:22:00,-999.0,-99.9,-100.00,SE,146,5.0,6.0,-999,0.00,,,-99.99,,2013-09-26 18:22:00,
2013-09-26 14:32:00,-999.0,-99.9,-100.00,SE,146,5.0,6.0,-999,0.00,,,-99.99,,2013-09-26 18:32:00,
2013-09-26 14:43:00,-999.0,-99.9,-100.00,SE,146,5.0,6.0,-999,0.00,,,-99.99,,2013-09-26 18:43:00,
2013-09-26 14:52:00,-999.0,-99.9,-100.00,SE,146,5.0,6.0,-999,0.00,,,-99.99,,2013-09-26 18:52:00,
2013-09-26 15:53:00,-999.0,-99.9,-100.00,ESE,110,4.0,9.0,-999,0.00,,,-99.99,,2013-09-26 19:53:00,
2013-09-26 16:23:00,-999.0,-99.9,-100.00,ESE,110,4.0,9.0,-999,0.00,,,-99.99,,2013-09-26 20:23:00,
2013-09-26 16:32:00,-999.0,-99.9,-100.00,ESE,110,4.0,9.0,-999,0.00,,,-99.99,,2013-09-26 20:32:00,
2013-09-26 16:43:00,-999.0,-99.9,-100.00,ESE,110,4.0,9.0,-999,0.00,,,-99.99,,2013-09-26 20:43:00,
2013-09-26 16:53:00,-999.0,-99.9,-100.00,SSW,200,6.0,7.0,-999,0.00,,,-99.99,,2013-09-26 20:53:00,
2013-09-26 17:35:00,-999.0,-99.9,-100.00,SSW,200,6.0,7.0,-999,0.00,,,-99.99,,2013-09-26 21:35:00,
2013-09-26 17:44:00,-999.0,-99.9,-100.00,SSW,200,6.0,7.0,-999,0.00,,,-99.99,,2013-09-26 21:44:00,